AAF weather

Apalachicola Regional Airport
Apalachicola, Florida, United States

Public forecast

Using degrees Fahrenheit for public forecast. Weather courtesy of forecast.io.

Current aviation weather report (METAR) for Apalachicola Regional Airport

Report is more than 2 hours old.

Retrieved 2020/07/04 20:53 UTC (4 hours ago):

KAAF 042053Z AUTO 27003KT 10SM BKN100 28/23 A2987 RMK AO2 RAE02 SLP113 P0000 60011 T02830233 58022 TSNO

Closest aviation forecast (TAF) to Apalachicola Regional Airport

Forecast is more than 12 hours old.

Closest forecast is Tyndall Air Force Base, 35.1 nm (65.1 km) NW. Retrieved 2020/07/02 19:06 UTC (2 days ago):

TAF KPAM 021900Z 0219/0401 35018G26KT 9999 FEW020 QNH2988INS TEMPO 0219/0221 35020G30KT 4800 TSRA BKN020CB BECMG 0220/0221 32009KT 9999 SCT035 QNH2988INS TEMPO 0310/0316 32012G18KT 4800 TSRA BKN020CB TX31/0319Z TN23/0311Z LAST NO AMDS AFT 0222 NEXT 0711